sensor_id;sensor_type;location;lat;lon;timestamp;P1;durP1;ratioP1;P2;durP2;ratioP2
21581;SDS011;10952;50.836;4.348;2022-07-06T00:01:49;6.37;;;2.57;;
21581;SDS011;10952;50.836;4.348;2022-07-06T00:04:16;7.63;;;3.10;;
21581;SDS011;10952;50.836;4.348;2022-07-06T00:06:45;7.47;;;2.70;;
21581;SDS011;10952;50.836;4.348;2022-07-06T00:09:11;9.37;;;2.83;;
21581;SDS011;10952;50.836;4.348;2022-07-06T00:11:37;8.23;;;2.63;;
21581;SDS011;10952;50.836;4.348;2022-07-06T00:14:03;6.47;;;2.70;;
21581;SDS011;10952;50.836;4.348;2022-07-06T00:16:29;12.77;;;2.50;;
21581;SDS011;10952;50.836;4.348;2022-07-06T00:18:57;6.47;;;2.80;;
21581;SDS011;10952;50.836;4.348;2022-07-06T00:21:22;9.90;;;3.07;;
21581;SDS011;10952;50.836;4.348;2022-07-06T00:23:54;6.40;;;3.00;;
21581;SDS011;10952;50.836;4.348;2022-07-06T00:26:20;7.53;;;3.00;;
21581;SDS011;10952;50.836;4.348;2022-07-06T00:28:46;5.80;;;2.90;;
21581;SDS011;10952;50.836;4.348;2022-07-06T00:31:23;7.70;;;2.90;;
21581;SDS011;10952;50.836;4.348;2022-07-06T00:33:49;9.07;;;2.90;;
21581;SDS011;10952;50.836;4.348;2022-07-06T00:36:16;9.33;;;3.03;;
21581;SDS011;10952;50.836;4.348;2022-07-06T00:38:42;9.47;;;2.80;;
21581;SDS011;10952;50.836;4.348;2022-07-06T00:41:11;8.63;;;3.20;;
21581;SDS011;10952;50.836;4.348;2022-07-06T00:43:54;13.63;;;3.20;;
21581;SDS011;10952;50.836;4.348;2022-07-06T00:46:28;4.53;;;2.73;;
21581;SDS011;10952;50.836;4.348;2022-07-06T00:48:57;7.57;;;2.90;;
21581;SDS011;10952;50.836;4.348;2022-07-06T00:51:29;6.80;;;2.90;;
21581;SDS011;10952;50.836;4.348;2022-07-06T00:53:59;6.30;;;2.97;;
21581;SDS011;10952;50.836;4.348;2022-07-06T00:56:28;6.23;;;2.57;;
21581;SDS011;10952;50.836;4.348;2022-07-06T00:58:56;7.07;;;2.80;;
21581;SDS011;10952;50.836;4.348;2022-07-06T01:01:23;12.67;;;3.33;;
21581;SDS011;10952;50.836;4.348;2022-07-06T01:03:51;9.40;;;3.90;;
21581;SDS011;10952;50.836;4.348;2022-07-06T01:06:22;6.23;;;3.70;;
21581;SDS011;10952;50.836;4.348;2022-07-06T01:08:49;10.57;;;4.03;;
21581;SDS011;10952;50.836;4.348;2022-07-06T01:11:16;6.30;;;3.20;;
21581;SDS011;10952;50.836;4.348;2022-07-06T01:13:43;7.03;;;3.20;;
21581;SDS011;10952;50.836;4.348;2022-07-06T01:16:11;8.90;;;3.50;;
21581;SDS011;10952;50.836;4.348;2022-07-06T01:18:39;12.20;;;3.27;;
21581;SDS011;10952;50.836;4.348;2022-07-06T01:21:06;12.70;;;4.10;;
21581;SDS011;10952;50.836;4.348;2022-07-06T01:23:38;10.27;;;4.17;;
21581;SDS011;10952;50.836;4.348;2022-07-06T01:26:05;10.00;;;3.90;;
21581;SDS011;10952;50.836;4.348;2022-07-06T01:28:30;9.10;;;4.10;;
21581;SDS011;10952;50.836;4.348;2022-07-06T01:30:59;9.13;;;3.80;;
21581;SDS011;10952;50.836;4.348;2022-07-06T01:33:27;9.47;;;4.27;;
21581;SDS011;10952;50.836;4.348;2022-07-06T01:35:55;9.47;;;3.93;;
21581;SDS011;10952;50.836;4.348;2022-07-06T01:38:21;9.27;;;4.30;;
21581;SDS011;10952;50.836;4.348;2022-07-06T01:40:48;10.97;;;3.80;;
21581;SDS011;10952;50.836;4.348;2022-07-06T01:43:14;12.43;;;3.90;;
21581;SDS011;10952;50.836;4.348;2022-07-06T01:45:41;7.80;;;3.57;;
21581;SDS011;10952;50.836;4.348;2022-07-06T01:48:07;8.23;;;3.80;;
21581;SDS011;10952;50.836;4.348;2022-07-06T01:50:32;7.43;;;3.83;;
21581;SDS011;10952;50.836;4.348;2022-07-06T01:53:01;7.53;;;4.20;;
21581;SDS011;10952;50.836;4.348;2022-07-06T01:55:28;10.50;;;3.50;;
21581;SDS011;10952;50.836;4.348;2022-07-06T01:57:54;13.40;;;3.67;;
21581;SDS011;10952;50.836;4.348;2022-07-06T02:00:20;13.83;;;3.83;;
21581;SDS011;10952;50.836;4.348;2022-07-06T02:02:49;9.17;;;4.00;;
21581;SDS011;10952;50.836;4.348;2022-07-06T02:05:15;8.80;;;3.77;;
21581;SDS011;10952;50.836;4.348;2022-07-06T02:07:41;10.20;;;4.13;;
21581;SDS011;10952;50.836;4.348;2022-07-06T02:10:07;11.33;;;3.43;;
21581;SDS011;10952;50.836;4.348;2022-07-06T02:12:34;8.60;;;4.20;;
21581;SDS011;10952;50.836;4.348;2022-07-06T02:15:00;9.00;;;3.70;;
21581;SDS011;10952;50.836;4.348;2022-07-06T02:17:26;11.23;;;3.77;;
21581;SDS011;10952;50.836;4.348;2022-07-06T02:19:52;8.43;;;3.60;;
21581;SDS011;10952;50.836;4.348;2022-07-06T02:22:19;9.67;;;3.53;;
21581;SDS011;10952;50.836;4.348;2022-07-06T02:24:45;8.13;;;4.00;;
21581;SDS011;10952;50.836;4.348;2022-07-06T02:27:11;11.73;;;4.00;;
21581;SDS011;10952;50.836;4.348;2022-07-06T02:29:37;6.77;;;3.40;;
21581;SDS011;10952;50.836;4.348;2022-07-06T02:32:02;8.97;;;3.90;;
21581;SDS011;10952;50.836;4.348;2022-07-06T02:34:28;8.67;;;3.93;;
21581;SDS011;10952;50.836;4.348;2022-07-06T02:36:55;6.37;;;3.60;;
21581;SDS011;10952;50.836;4.348;2022-07-06T02:39:20;8.73;;;3.67;;
21581;SDS011;10952;50.836;4.348;2022-07-06T02:41:47;7.80;;;3.77;;
21581;SDS011;10952;50.836;4.348;2022-07-06T02:46:41;8.23;;;4.03;;
21581;SDS011;10952;50.836;4.348;2022-07-06T02:49:07;11.93;;;3.90;;
21581;SDS011;10952;50.836;4.348;2022-07-06T02:51:39;9.90;;;3.93;;
21581;SDS011;10952;50.836;4.348;2022-07-06T02:54:04;14.57;;;3.97;;
21581;SDS011;10952;50.836;4.348;2022-07-06T02:56:30;7.57;;;4.03;;
21581;SDS011;10952;50.836;4.348;2022-07-06T02:58:58;12.13;;;4.00;;
21581;SDS011;10952;50.836;4.348;2022-07-06T03:01:24;8.90;;;4.40;;
21581;SDS011;10952;50.836;4.348;2022-07-06T03:03:50;7.47;;;4.47;;
21581;SDS011;10952;50.836;4.348;2022-07-06T03:06:16;9.60;;;4.37;;
21581;SDS011;10952;50.836;4.348;2022-07-06T03:08:42;12.50;;;4.20;;
21581;SDS011;10952;50.836;4.348;2022-07-06T03:11:07;11.27;;;3.93;;
21581;SDS011;10952;50.836;4.348;2022-07-06T03:13:33;11.10;;;4.50;;
21581;SDS011;10952;50.836;4.348;2022-07-06T03:16:00;9.80;;;4.37;;
21581;SDS011;10952;50.836;4.348;2022-07-06T03:18:26;9.87;;;4.93;;
21581;SDS011;10952;50.836;4.348;2022-07-06T03:20:52;7.77;;;4.50;;
21581;SDS011;10952;50.836;4.348;2022-07-06T03:23:18;8.07;;;4.57;;
21581;SDS011;10952;50.836;4.348;2022-07-06T03:25:44;13.43;;;4.80;;
21581;SDS011;10952;50.836;4.348;2022-07-06T03:28:10;9.87;;;4.13;;
21581;SDS011;10952;50.836;4.348;2022-07-06T03:30:37;8.87;;;4.23;;
21581;SDS011;10952;50.836;4.348;2022-07-06T03:33:02;9.57;;;4.50;;
21581;SDS011;10952;50.836;4.348;2022-07-06T03:35:29;9.07;;;4.13;;
21581;SDS011;10952;50.836;4.348;2022-07-06T03:37:55;7.53;;;3.97;;
21581;SDS011;10952;50.836;4.348;2022-07-06T03:40:22;9.67;;;4.27;;
21581;SDS011;10952;50.836;4.348;2022-07-06T03:42:48;9.27;;;4.30;;
21581;SDS011;10952;50.836;4.348;2022-07-06T03:45:15;10.23;;;4.60;;
21581;SDS011;10952;50.836;4.348;2022-07-06T03:47:40;14.00;;;4.50;;
21581;SDS011;10952;50.836;4.348;2022-07-06T03:50:06;11.83;;;4.27;;
21581;SDS011;10952;50.836;4.348;2022-07-06T03:52:33;9.47;;;4.20;;
21581;SDS011;10952;50.836;4.348;2022-07-06T03:55:00;9.53;;;4.60;;
21581;SDS011;10952;50.836;4.348;2022-07-06T03:57:25;11.27;;;4.20;;
21581;SDS011;10952;50.836;4.348;2022-07-06T03:59:51;12.43;;;4.37;;
21581;SDS011;10952;50.836;4.348;2022-07-06T04:02:17;10.03;;;5.00;;
21581;SDS011;10952;50.836;4.348;2022-07-06T04:04:43;9.87;;;4.47;;
21581;SDS011;10952;50.836;4.348;2022-07-06T04:07:08;13.13;;;5.10;;
21581;SDS011;10952;50.836;4.348;2022-07-06T04:09:34;13.30;;;5.20;;
21581;SDS011;10952;50.836;4.348;2022-07-06T04:11:59;11.20;;;4.67;;
21581;SDS011;10952;50.836;4.348;2022-07-06T04:14:25;9.67;;;4.63;;
21581;SDS011;10952;50.836;4.348;2022-07-06T04:16:52;12.17;;;4.87;;
21581;SDS011;10952;50.836;4.348;2022-07-06T04:19:18;14.60;;;4.77;;
21581;SDS011;10952;50.836;4.348;2022-07-06T04:21:43;12.30;;;4.83;;
21581;SDS011;10952;50.836;4.348;2022-07-06T04:24:09;11.93;;;5.40;;
21581;SDS011;10952;50.836;4.348;2022-07-06T04:26:35;11.57;;;5.57;;
21581;SDS011;10952;50.836;4.348;2022-07-06T04:29:00;12.63;;;4.63;;
21581;SDS011;10952;50.836;4.348;2022-07-06T04:31:26;17.30;;;6.47;;
21581;SDS011;10952;50.836;4.348;2022-07-06T04:33:52;12.50;;;6.00;;
21581;SDS011;10952;50.836;4.348;2022-07-06T04:36:18;11.80;;;5.53;;
21581;SDS011;10952;50.836;4.348;2022-07-06T04:38:44;13.10;;;5.37;;
21581;SDS011;10952;50.836;4.348;2022-07-06T04:41:12;13.07;;;5.23;;
21581;SDS011;10952;50.836;4.348;2022-07-06T04:43:38;14.43;;;5.87;;
21581;SDS011;10952;50.836;4.348;2022-07-06T04:46:04;15.37;;;6.57;;
21581;SDS011;10952;50.836;4.348;2022-07-06T04:48:31;22.07;;;8.63;;
21581;SDS011;10952;50.836;4.348;2022-07-06T04:51:01;12.77;;;4.87;;
21581;SDS011;10952;50.836;4.348;2022-07-06T04:53:27;13.80;;;5.33;;
21581;SDS011;10952;50.836;4.348;2022-07-06T04:55:55;9.87;;;5.00;;
21581;SDS011;10952;50.836;4.348;2022-07-06T04:58:23;12.37;;;4.63;;
21581;SDS011;10952;50.836;4.348;2022-07-06T05:00:50;10.47;;;6.17;;
21581;SDS011;10952;50.836;4.348;2022-07-06T05:03:18;20.23;;;5.50;;
21581;SDS011;10952;50.836;4.348;2022-07-06T05:08:16;13.23;;;6.23;;
21581;SDS011;10952;50.836;4.348;2022-07-06T05:10:45;10.93;;;5.33;;
21581;SDS011;10952;50.836;4.348;2022-07-06T05:13:10;8.77;;;5.20;;
21581;SDS011;10952;50.836;4.348;2022-07-06T05:15:37;10.40;;;5.33;;
21581;SDS011;10952;50.836;4.348;2022-07-06T05:18:04;12.40;;;5.37;;
21581;SDS011;10952;50.836;4.348;2022-07-06T05:20:30;15.37;;;6.30;;
21581;SDS011;10952;50.836;4.348;2022-07-06T05:22:56;15.73;;;6.50;;
21581;SDS011;10952;50.836;4.348;2022-07-06T05:25:24;14.77;;;5.87;;
21581;SDS011;10952;50.836;4.348;2022-07-06T05:27:59;12.73;;;6.07;;
21581;SDS011;10952;50.836;4.348;2022-07-06T05:30:25;17.87;;;6.30;;
21581;SDS011;10952;50.836;4.348;2022-07-06T05:32:51;18.20;;;6.47;;
21581;SDS011;10952;50.836;4.348;2022-07-06T05:35:17;15.90;;;6.47;;
21581;SDS011;10952;50.836;4.348;2022-07-06T05:37:42;13.97;;;6.93;;
21581;SDS011;10952;50.836;4.348;2022-07-06T05:40:08;15.83;;;6.50;;
21581;SDS011;10952;50.836;4.348;2022-07-06T05:42:35;15.70;;;6.63;;
21581;SDS011;10952;50.836;4.348;2022-07-06T05:45:01;18.63;;;6.60;;
21581;SDS011;10952;50.836;4.348;2022-07-06T05:47:29;15.63;;;6.70;;
21581;SDS011;10952;50.836;4.348;2022-07-06T05:50:13;19.87;;;7.47;;
21581;SDS011;10952;50.836;4.348;2022-07-06T05:52:40;14.80;;;6.33;;
21581;SDS011;10952;50.836;4.348;2022-07-06T05:55:08;17.20;;;6.57;;
21581;SDS011;10952;50.836;4.348;2022-07-06T05:57:35;19.90;;;8.17;;
21581;SDS011;10952;50.836;4.348;2022-07-06T06:00:01;14.17;;;6.83;;
21581;SDS011;10952;50.836;4.348;2022-07-06T06:02:35;16.37;;;7.23;;
21581;SDS011;10952;50.836;4.348;2022-07-06T06:05:06;16.20;;;7.60;;
21581;SDS011;10952;50.836;4.348;2022-07-06T06:07:36;17.73;;;7.40;;
21581;SDS011;10952;50.836;4.348;2022-07-06T06:10:03;17.60;;;7.03;;
21581;SDS011;10952;50.836;4.348;2022-07-06T06:12:31;19.27;;;6.83;;
21581;SDS011;10952;50.836;4.348;2022-07-06T06:14:56;18.17;;;7.30;;
21581;SDS011;10952;50.836;4.348;2022-07-06T06:17:22;20.50;;;7.23;;
21581;SDS011;10952;50.836;4.348;2022-07-06T06:19:48;20.10;;;7.20;;
21581;SDS011;10952;50.836;4.348;2022-07-06T06:22:14;14.10;;;6.57;;
21581;SDS011;10952;50.836;4.348;2022-07-06T06:24:39;18.10;;;6.57;;
21581;SDS011;10952;50.836;4.348;2022-07-06T06:27:05;11.43;;;5.80;;
21581;SDS011;10952;50.836;4.348;2022-07-06T06:29:32;17.40;;;6.47;;
21581;SDS011;10952;50.836;4.348;2022-07-06T06:31:57;15.50;;;5.77;;
21581;SDS011;10952;50.836;4.348;2022-07-06T06:34:23;16.40;;;6.50;;
21581;SDS011;10952;50.836;4.348;2022-07-06T06:36:49;18.57;;;6.60;;
21581;SDS011;10952;50.836;4.348;2022-07-06T06:39:14;15.97;;;7.00;;
21581;SDS011;10952;50.836;4.348;2022-07-06T06:41:40;17.33;;;6.80;;
21581;SDS011;10952;50.836;4.348;2022-07-06T06:44:06;17.37;;;7.20;;
21581;SDS011;10952;50.836;4.348;2022-07-06T06:46:32;12.37;;;6.40;;
21581;SDS011;10952;50.836;4.348;2022-07-06T06:48:57;11.63;;;5.37;;
21581;SDS011;10952;50.836;4.348;2022-07-06T06:51:23;17.47;;;5.47;;
21581;SDS011;10952;50.836;4.348;2022-07-06T06:53:49;20.10;;;5.30;;
21581;SDS011;10952;50.836;4.348;2022-07-06T06:56:15;18.40;;;5.70;;
21581;SDS011;10952;50.836;4.348;2022-07-06T06:58:40;18.57;;;5.60;;
21581;SDS011;10952;50.836;4.348;2022-07-06T07:01:06;11.80;;;4.17;;
21581;SDS011;10952;50.836;4.348;2022-07-06T07:03:32;12.67;;;3.63;;
21581;SDS011;10952;50.836;4.348;2022-07-06T07:05:57;17.30;;;7.77;;
21581;SDS011;10952;50.836;4.348;2022-07-06T07:08:23;46.90;;;8.37;;
21581;SDS011;10952;50.836;4.348;2022-07-06T07:10:49;18.37;;;4.73;;
21581;SDS011;10952;50.836;4.348;2022-07-06T07:13:15;13.27;;;5.23;;
21581;SDS011;10952;50.836;4.348;2022-07-06T07:15:40;13.90;;;4.00;;
21581;SDS011;10952;50.836;4.348;2022-07-06T07:18:06;14.17;;;4.10;;
21581;SDS011;10952;50.836;4.348;2022-07-06T07:20:32;13.63;;;4.00;;
21581;SDS011;10952;50.836;4.348;2022-07-06T07:22:58;19.20;;;4.83;;
21581;SDS011;10952;50.836;4.348;2022-07-06T07:25:27;11.33;;;4.60;;
21581;SDS011;10952;50.836;4.348;2022-07-06T07:27:53;9.37;;;3.80;;
21581;SDS011;10952;50.836;4.348;2022-07-06T07:30:19;9.57;;;3.30;;
21581;SDS011;10952;50.836;4.348;2022-07-06T07:32:46;11.53;;;3.30;;
21581;SDS011;10952;50.836;4.348;2022-07-06T07:35:12;14.23;;;4.13;;
21581;SDS011;10952;50.836;4.348;2022-07-06T07:37:38;9.00;;;3.23;;
21581;SDS011;10952;50.836;4.348;2022-07-06T07:40:04;8.03;;;3.30;;
21581;SDS011;10952;50.836;4.348;2022-07-06T07:42:31;6.43;;;2.87;;
21581;SDS011;10952;50.836;4.348;2022-07-06T07:44:57;11.97;;;3.20;;
21581;SDS011;10952;50.836;4.348;2022-07-06T07:47:24;16.80;;;3.63;;
21581;SDS011;10952;50.836;4.348;2022-07-06T07:49:50;12.20;;;3.57;;
21581;SDS011;10952;50.836;4.348;2022-07-06T07:52:17;9.47;;;3.40;;
21581;SDS011;10952;50.836;4.348;2022-07-06T07:57:14;11.60;;;2.17;;
21581;SDS011;10952;50.836;4.348;2022-07-06T07:59:40;11.13;;;2.67;;
21581;SDS011;10952;50.836;4.348;2022-07-06T08:02:07;13.27;;;2.93;;
21581;SDS011;10952;50.836;4.348;2022-07-06T08:04:33;11.53;;;2.77;;
21581;SDS011;10952;50.836;4.348;2022-07-06T08:06:58;7.23;;;2.70;;
21581;SDS011;10952;50.836;4.348;2022-07-06T08:09:24;5.93;;;2.10;;
21581;SDS011;10952;50.836;4.348;2022-07-06T08:11:50;6.53;;;1.90;;
21581;SDS011;10952;50.836;4.348;2022-07-06T08:14:16;6.83;;;2.10;;
21581;SDS011;10952;50.836;4.348;2022-07-06T08:16:42;8.50;;;2.50;;
21581;SDS011;10952;50.836;4.348;2022-07-06T08:19:08;7.07;;;2.40;;
21581;SDS011;10952;50.836;4.348;2022-07-06T08:21:34;8.17;;;2.87;;
21581;SDS011;10952;50.836;4.348;2022-07-06T08:24:00;11.73;;;3.27;;
21581;SDS011;10952;50.836;4.348;2022-07-06T08:26:28;10.50;;;2.67;;
21581;SDS011;10952;50.836;4.348;2022-07-06T08:28:56;9.20;;;2.90;;
21581;SDS011;10952;50.836;4.348;2022-07-06T08:31:22;8.03;;;2.60;;
21581;SDS011;10952;50.836;4.348;2022-07-06T08:33:47;11.40;;;3.10;;
21581;SDS011;10952;50.836;4.348;2022-07-06T08:36:14;11.27;;;3.20;;
21581;SDS011;10952;50.836;4.348;2022-07-06T08:38:40;10.20;;;3.80;;
21581;SDS011;10952;50.836;4.348;2022-07-06T08:41:06;16.73;;;3.37;;
21581;SDS011;10952;50.836;4.348;2022-07-06T08:43:34;9.07;;;2.93;;
21581;SDS011;10952;50.836;4.348;2022-07-06T08:46:00;10.17;;;2.90;;
21581;SDS011;10952;50.836;4.348;2022-07-06T08:48:26;9.97;;;3.63;;
21581;SDS011;10952;50.836;4.348;2022-07-06T08:50:54;6.30;;;3.37;;
21581;SDS011;10952;50.836;4.348;2022-07-06T08:53:20;13.00;;;3.50;;
21581;SDS011;10952;50.836;4.348;2022-07-06T08:55:47;10.40;;;3.60;;
21581;SDS011;10952;50.836;4.348;2022-07-06T09:00:44;8.10;;;3.00;;
21581;SDS011;10952;50.836;4.348;2022-07-06T09:03:11;8.33;;;3.90;;
21581;SDS011;10952;50.836;4.348;2022-07-06T09:05:37;10.57;;;3.17;;
21581;SDS011;10952;50.836;4.348;2022-07-06T09:08:05;9.13;;;3.77;;
21581;SDS011;10952;50.836;4.348;2022-07-06T09:10:31;11.30;;;3.40;;
21581;SDS011;10952;50.836;4.348;2022-07-06T09:13:03;7.93;;;3.70;;
21581;SDS011;10952;50.836;4.348;2022-07-06T09:15:30;6.43;;;3.40;;
21581;SDS011;10952;50.836;4.348;2022-07-06T09:17:56;7.90;;;3.37;;
21581;SDS011;10952;50.836;4.348;2022-07-06T09:20:31;13.67;;;4.17;;
21581;SDS011;10952;50.836;4.348;2022-07-06T09:23:02;9.10;;;3.17;;
21581;SDS011;10952;50.836;4.348;2022-07-06T09:25:30;9.07;;;3.40;;
21581;SDS011;10952;50.836;4.348;2022-07-06T09:27:56;7.87;;;3.40;;
21581;SDS011;10952;50.836;4.348;2022-07-06T09:30:23;6.37;;;3.10;;
21581;SDS011;10952;50.836;4.348;2022-07-06T09:32:56;9.70;;;3.67;;
21581;SDS011;10952;50.836;4.348;2022-07-06T09:35:45;7.07;;;2.87;;
21581;SDS011;10952;50.836;4.348;2022-07-06T09:38:14;12.50;;;3.43;;
21581;SDS011;10952;50.836;4.348;2022-07-06T09:40:46;14.20;;;3.37;;
21581;SDS011;10952;50.836;4.348;2022-07-06T09:43:22;9.10;;;3.10;;
21581;SDS011;10952;50.836;4.348;2022-07-06T09:45:50;8.50;;;2.73;;
21581;SDS011;10952;50.836;4.348;2022-07-06T09:48:22;8.47;;;3.80;;
21581;SDS011;10952;50.836;4.348;2022-07-06T09:53:18;10.70;;;2.73;;
21581;SDS011;10952;50.836;4.348;2022-07-06T09:55:47;9.17;;;3.00;;
21581;SDS011;10952;50.836;4.348;2022-07-06T09:58:17;9.70;;;3.33;;
21581;SDS011;10952;50.836;4.348;2022-07-06T10:00:49;14.73;;;4.27;;
21581;SDS011;10952;50.836;4.348;2022-07-06T10:03:18;10.93;;;2.90;;
21581;SDS011;10952;50.836;4.348;2022-07-06T10:08:14;7.70;;;3.00;;
21581;SDS011;10952;50.836;4.348;2022-07-06T10:10:42;7.77;;;3.00;;
21581;SDS011;10952;50.836;4.348;2022-07-06T10:13:14;7.83;;;3.10;;
21581;SDS011;10952;50.836;4.348;2022-07-06T10:15:46;6.78;;;3.10;;
21581;SDS011;10952;50.836;4.348;2022-07-06T10:18:19;6.78;;;2.95;;
21581;SDS011;10952;50.836;4.348;2022-07-06T10:20:50;8.40;;;2.90;;
21581;SDS011;10952;50.836;4.348;2022-07-06T10:23:16;5.85;;;2.67;;
21581;SDS011;10952;50.836;4.348;2022-07-06T10:25:42;7.78;;;3.25;;
21581;SDS011;10952;50.836;4.348;2022-07-06T10:28:09;9.00;;;2.90;;
21581;SDS011;10952;50.836;4.348;2022-07-06T10:30:40;8.05;;;4.18;;
21581;SDS011;10952;50.836;4.348;2022-07-06T10:33:13;7.70;;;3.08;;
21581;SDS011;10952;50.836;4.348;2022-07-06T10:35:40;9.82;;;3.33;;
21581;SDS011;10952;50.836;4.348;2022-07-06T10:38:10;9.65;;;3.30;;
21581;SDS011;10952;50.836;4.348;2022-07-06T10:40:38;6.45;;;3.08;;
21581;SDS011;10952;50.836;4.348;2022-07-06T10:43:45;7.25;;;2.90;;
21581;SDS011;10952;50.836;4.348;2022-07-06T10:46:13;6.72;;;2.88;;
21581;SDS011;10952;50.836;4.348;2022-07-06T10:51:12;8.48;;;3.10;;
21581;SDS011;10952;50.836;4.348;2022-07-06T10:53:49;9.90;;;2.72;;
21581;SDS011;10952;50.836;4.348;2022-07-06T10:56:21;14.43;;;3.22;;
21581;SDS011;10952;50.836;4.348;2022-07-06T10:59:08;12.20;;;3.25;;
21581;SDS011;10952;50.836;4.348;2022-07-06T11:01:39;8.88;;;3.38;;
21581;SDS011;10952;50.836;4.348;2022-07-06T11:04:06;11.35;;;3.08;;
21581;SDS011;10952;50.836;4.348;2022-07-06T11:06:34;8.82;;;2.95;;
21581;SDS011;10952;50.836;4.348;2022-07-06T11:09:10;5.28;;;2.40;;
21581;SDS011;10952;50.836;4.348;2022-07-06T11:11:37;8.10;;;2.25;;
21581;SDS011;10952;50.836;4.348;2022-07-06T11:16:39;5.80;;;1.98;;
21581;SDS011;10952;50.836;4.348;2022-07-06T11:19:15;7.15;;;2.13;;
21581;SDS011;10952;50.836;4.348;2022-07-06T11:24:13;9.40;;;2.90;;
21581;SDS011;10952;50.836;4.348;2022-07-06T11:26:47;7.18;;;3.00;;
21581;SDS011;10952;50.836;4.348;2022-07-06T11:31:46;7.05;;;2.05;;
21581;SDS011;10952;50.836;4.348;2022-07-06T11:34:17;6.63;;;2.35;;
21581;SDS011;10952;50.836;4.348;2022-07-06T11:36:58;6.72;;;2.10;;
21581;SDS011;10952;50.836;4.348;2022-07-06T11:39:35;6.13;;;2.28;;
21581;SDS011;10952;50.836;4.348;2022-07-06T11:42:05;6.35;;;2.28;;
21581;SDS011;10952;50.836;4.348;2022-07-06T11:44:33;6.47;;;2.05;;
21581;SDS011;10952;50.836;4.348;2022-07-06T11:47:00;7.72;;;2.10;;
21581;SDS011;10952;50.836;4.348;2022-07-06T11:49:28;8.40;;;2.35;;
21581;SDS011;10952;50.836;4.348;2022-07-06T11:51:55;8.15;;;2.33;;
21581;SDS011;10952;50.836;4.348;2022-07-06T11:54:21;5.18;;;1.85;;
21581;SDS011;10952;50.836;4.348;2022-07-06T11:59:20;11.65;;;2.33;;
21581;SDS011;10952;50.836;4.348;2022-07-06T12:02:02;8.20;;;2.85;;
21581;SDS011;10952;50.836;4.348;2022-07-06T12:04:31;6.95;;;2.13;;
21581;SDS011;10952;50.836;4.348;2022-07-06T12:07:18;9.13;;;2.20;;
21581;SDS011;10952;50.836;4.348;2022-07-06T12:09:47;7.07;;;2.35;;
21581;SDS011;10952;50.836;4.348;2022-07-06T12:12:13;10.32;;;2.33;;
21581;SDS011;10952;50.836;4.348;2022-07-06T12:14:40;6.97;;;2.53;;
21581;SDS011;10952;50.836;4.348;2022-07-06T12:17:07;9.02;;;2.70;;
21581;SDS011;10952;50.836;4.348;2022-07-06T12:19:35;11.23;;;2.80;;
21581;SDS011;10952;50.836;4.348;2022-07-06T12:22:01;8.90;;;2.88;;
21581;SDS011;10952;50.836;4.348;2022-07-06T12:24:29;9.85;;;2.55;;
21581;SDS011;10952;50.836;4.348;2022-07-06T12:26:57;9.20;;;2.17;;
21581;SDS011;10952;50.836;4.348;2022-07-06T12:29:34;10.07;;;3.10;;
21581;SDS011;10952;50.836;4.348;2022-07-06T12:31:59;6.35;;;2.25;;
21581;SDS011;10952;50.836;4.348;2022-07-06T12:34:27;7.13;;;2.30;;
21581;SDS011;10952;50.836;4.348;2022-07-06T12:37:05;9.55;;;2.40;;
21581;SDS011;10952;50.836;4.348;2022-07-06T12:39:43;8.05;;;2.60;;
21581;SDS011;10952;50.836;4.348;2022-07-06T12:42:13;8.00;;;2.28;;
21581;SDS011;10952;50.836;4.348;2022-07-06T12:44:43;6.38;;;1.95;;
21581;SDS011;10952;50.836;4.348;2022-07-06T12:47:11;7.88;;;2.78;;
21581;SDS011;10952;50.836;4.348;2022-07-06T12:49:38;3.95;;;1.83;;
21581;SDS011;10952;50.836;4.348;2022-07-06T12:54:41;8.52;;;2.72;;
21581;SDS011;10952;50.836;4.348;2022-07-06T12:57:09;8.40;;;2.80;;
21581;SDS011;10952;50.836;4.348;2022-07-06T12:59:42;11.32;;;3.08;;
21581;SDS011;10952;50.836;4.348;2022-07-06T13:02:16;8.88;;;2.85;;
21581;SDS011;10952;50.836;4.348;2022-07-06T13:04:55;6.65;;;2.88;;
21581;SDS011;10952;50.836;4.348;2022-07-06T13:07:29;6.43;;;2.50;;
21581;SDS011;10952;50.836;4.348;2022-07-06T13:09:58;4.97;;;2.40;;
21581;SDS011;10952;50.836;4.348;2022-07-06T13:12:24;19.48;;;3.35;;
21581;SDS011;10952;50.836;4.348;2022-07-06T13:14:50;7.28;;;2.35;;
21581;SDS011;10952;50.836;4.348;2022-07-06T13:17:16;8.57;;;2.67;;
21581;SDS011;10952;50.836;4.348;2022-07-06T13:19:42;7.70;;;2.72;;
21581;SDS011;10952;50.836;4.348;2022-07-06T13:22:08;5.25;;;2.25;;
21581;SDS011;10952;50.836;4.348;2022-07-06T13:24:34;5.15;;;2.30;;
21581;SDS011;10952;50.836;4.348;2022-07-06T13:27:00;7.88;;;2.20;;
21581;SDS011;10952;50.836;4.348;2022-07-06T13:29:26;4.50;;;2.85;;
21581;SDS011;10952;50.836;4.348;2022-07-06T13:31:51;7.18;;;2.33;;
21581;SDS011;10952;50.836;4.348;2022-07-06T13:34:17;8.63;;;2.40;;
21581;SDS011;10952;50.836;4.348;2022-07-06T13:36:43;7.95;;;2.17;;
21581;SDS011;10952;50.836;4.348;2022-07-06T13:39:09;8.07;;;1.95;;
21581;SDS011;10952;50.836;4.348;2022-07-06T13:41:35;10.40;;;2.80;;
21581;SDS011;10952;50.836;4.348;2022-07-06T13:44:01;5.88;;;2.05;;
21581;SDS011;10952;50.836;4.348;2022-07-06T13:46:27;4.53;;;2.28;;
21581;SDS011;10952;50.836;4.348;2022-07-06T13:48:54;7.88;;;2.28;;
21581;SDS011;10952;50.836;4.348;2022-07-06T13:51:23;5.53;;;2.03;;
21581;SDS011;10952;50.836;4.348;2022-07-06T13:53:54;9.63;;;2.50;;
21581;SDS011;10952;50.836;4.348;2022-07-06T13:56:22;7.25;;;2.58;;
21581;SDS011;10952;50.836;4.348;2022-07-06T13:58:48;6.57;;;2.70;;
21581;SDS011;10952;50.836;4.348;2022-07-06T14:01:14;9.15;;;2.72;;
21581;SDS011;10952;50.836;4.348;2022-07-06T14:03:41;8.90;;;3.35;;
21581;SDS011;10952;50.836;4.348;2022-07-06T14:06:09;7.38;;;2.25;;
21581;SDS011;10952;50.836;4.348;2022-07-06T14:08:35;8.13;;;2.92;;
21581;SDS011;10952;50.836;4.348;2022-07-06T14:11:04;6.93;;;2.25;;
21581;SDS011;10952;50.836;4.348;2022-07-06T14:13:31;8.65;;;3.15;;
21581;SDS011;10952;50.836;4.348;2022-07-06T14:15:58;7.43;;;2.67;;
21581;SDS011;10952;50.836;4.348;2022-07-06T14:18:30;7.57;;;2.35;;
21581;SDS011;10952;50.836;4.348;2022-07-06T14:20:56;6.05;;;2.83;;
21581;SDS011;10952;50.836;4.348;2022-07-06T14:23:24;6.53;;;2.30;;
21581;SDS011;10952;50.836;4.348;2022-07-06T14:25:50;9.57;;;2.53;;
21581;SDS011;10952;50.836;4.348;2022-07-06T14:30:47;6.40;;;1.73;;
21581;SDS011;10952;50.836;4.348;2022-07-06T14:33:13;8.85;;;2.00;;
21581;SDS011;10952;50.836;4.348;2022-07-06T14:35:43;7.40;;;2.22;;
21581;SDS011;10952;50.836;4.348;2022-07-06T14:38:13;8.73;;;2.45;;
21581;SDS011;10952;50.836;4.348;2022-07-06T14:40:40;7.30;;;2.28;;
21581;SDS011;10952;50.836;4.348;2022-07-06T14:43:06;6.13;;;1.88;;
21581;SDS011;10952;50.836;4.348;2022-07-06T14:45:33;8.43;;;2.00;;
21581;SDS011;10952;50.836;4.348;2022-07-06T14:47:59;8.70;;;2.20;;
21581;SDS011;10952;50.836;4.348;2022-07-06T14:50:28;3.60;;;2.17;;
21581;SDS011;10952;50.836;4.348;2022-07-06T14:53:00;5.05;;;2.28;;
21581;SDS011;10952;50.836;4.348;2022-07-06T14:55:29;9.45;;;2.30;;
21581;SDS011;10952;50.836;4.348;2022-07-06T14:58:00;4.28;;;1.77;;
21581;SDS011;10952;50.836;4.348;2022-07-06T15:00:28;5.55;;;1.98;;
21581;SDS011;10952;50.836;4.348;2022-07-06T15:02:55;7.03;;;1.98;;
21581;SDS011;10952;50.836;4.348;2022-07-06T15:05:21;4.53;;;2.20;;
21581;SDS011;10952;50.836;4.348;2022-07-06T15:07:47;4.72;;;2.13;;
21581;SDS011;10952;50.836;4.348;2022-07-06T15:10:13;4.85;;;1.80;;
21581;SDS011;10952;50.836;4.348;2022-07-06T15:12:39;6.78;;;1.92;;
21581;SDS011;10952;50.836;4.348;2022-07-06T15:15:05;9.88;;;2.78;;
21581;SDS011;10952;50.836;4.348;2022-07-06T15:17:31;5.55;;;2.20;;
21581;SDS011;10952;50.836;4.348;2022-07-06T15:19:59;7.22;;;1.63;;